Station Historical Data
Daily Summary for June 2, 2011 Units:  English    Metric   Both
« Previous Day
Next Day »
Daily Weekly Monthly Yearly Custom
  High: Low: Average:
Temperature: 93.2 °F 70.0 °F 81.4 °F
Dew Point: 75.1 °F 66.1 °F 70.4 °F
Humidity: 92% 44% 71%
Wind Speed: 9.0mph 0.0mph 1.6mph
Wind Gust: 12.0mph - -
Wind- - SE
Pressure: 30.09 in 29.97 in -
Precipitation: 0.00 in    
Historical Graphs
 
 
Tabular Data for June 2, 2011
Time Temperature Dew Point Pressure Wind Wind Speed Wind Gust Humidity Rainfall Rate (Hourly) Conditions
00:00 77.2 °F 70.2 °F 30.07 in NNE 1.0 mph 2.0 mph 79% 0.00 in
00:01 77.2 °F 70.2 °F 30.07 in NNE 1.0 mph 2.0 mph 79% 0.00 in
00:02 77.2 °F 70.2 °F 30.07 in NNE 1.0 mph 2.0 mph 79% 0.00 in
00:06 77.2 °F 70.6 °F 30.07 in NNE 1.0 mph 2.0 mph 80% 0.00 in
00:11 77.0 °F 70.4 °F 30.07 in Calm   1.0 mph 80% 0.00 in
00:12 76.9 °F 70.3 °F 30.07 in Calm   1.0 mph 80% 0.00 in
00:17 76.7 °F 70.4 °F 30.07 in NNW 1.0 mph 1.0 mph 81% 0.00 in
00:22 76.5 °F 70.2 °F 30.07 in Calm   2.0 mph 81% 0.00 in
00:27 76.4 °F 70.1 °F 30.07 in Calm   1.0 mph 81% 0.00 in
00:28 76.4 °F 70.1 °F 30.07 in Calm   1.0 mph 81% 0.00 in
00:33 76.2 °F 69.9 °F 30.07 in NNE 1.0 mph 1.0 mph 81% 0.00 in
00:34 76.2 °F 69.9 °F 30.07 in Calm   1.0 mph 81% 0.00 in
00:36 76.1 °F 70.2 °F 30.07 in Calm     82% 0.00 in
00:41 75.9 °F 70.0 °F 30.07 in Calm     82% 0.00 in
00:46 75.7 °F 70.2 °F 30.07 in Calm     83% 0.00 in
00:47 75.7 °F 70.2 °F 30.07 in Calm     83% 0.00 in
00:52 75.6 °F 70.1 °F 30.07 in Calm     83% 0.00 in
00:53 75.5 °F 70.0 °F 30.07 in Calm     83% 0.00 in
00:57 75.3 °F 69.8 °F 30.06 in Calm     83% 0.00 in
00:58 75.3 °F 69.8 °F 30.06 in Calm     83% 0.00 in
01:02 75.1 °F 69.9 °F 30.06 in Calm     84% 0.00 in
01:05 75.1 °F 69.9 °F 30.06 in Calm     84% 0.00 in
01:08 75.0 °F 69.8 °F 30.06 in NNE 1.0 mph 1.0 mph 84% 0.00 in
01:13 74.8 °F 69.7 °F 30.06 in Calm   1.0 mph 84% 0.00 in
01:14 74.7 °F 69.6 °F 30.06 in NNE 1.0 mph 1.0 mph 84% 0.00 in
01:19 75.0 °F 69.8 °F 30.06 in NNE 1.0 mph 1.0 mph 84% 0.00 in
01:24 75.4 °F 69.9 °F 30.06 in NNE 1.0 mph 1.0 mph 83% 0.00 in
01:29 75.4 °F 69.9 °F 30.05 in Calm   1.0 mph 83% 0.00 in
01:34 75.3 °F 69.8 °F 30.05 in Calm   1.0 mph 83% 0.00 in
01:35 75.3 °F 69.8 °F 30.05 in Calm   1.0 mph 83% 0.00 in
01:36 75.2 °F 69.7 °F 30.05 in Calm     83% 0.00 in
01:41 74.9 °F 69.7 °F 30.06 in NNW 2.0 mph 2.0 mph 84% 0.00 in
01:47 73.9 °F 69.4 °F 30.06 in NNW 2.0 mph 2.0 mph 86% 0.00 in
01:52 73.0 °F 69.2 °F 30.06 in NNW 2.0 mph 2.0 mph 88% 0.00 in
01:53 72.9 °F 69.5 °F 30.06 in NNW 2.0 mph 2.0 mph 89% 0.00 in
01:57 73.2 °F 69.4 °F 30.06 in NNW 3.0 mph 3.0 mph 88% 0.00 in
01:58 73.4 °F 69.3 °F 30.06 in NNW 2.0 mph 3.0 mph 87% 0.00 in
02:03 73.8 °F 69.3 °F 30.06 in North 2.0 mph 3.0 mph 86% 0.00 in
02:08 74.0 °F 69.2 °F 30.06 in North 1.0 mph 1.0 mph 85% 0.00 in
02:13 73.9 °F 69.1 °F 30.05 in Calm   1.0 mph 85% 0.00 in
02:18 74.1 °F 69.0 °F 30.06 in North 1.0 mph 2.0 mph 84% 0.00 in
02:23 74.4 °F 68.9 °F 30.06 in NNE 1.0 mph 1.0 mph 83% 0.00 in
02:28 74.4 °F 68.9 °F 30.06 in NNE 1.0 mph 1.0 mph 83% 0.00 in
02:29 74.4 °F 68.9 °F 30.05 in Calm   1.0 mph 83% 0.00 in
02:30 74.4 °F 68.9 °F 30.05 in Calm   1.0 mph 83% 0.00 in
02:34 74.5 °F 69.0 °F 30.05 in Calm   1.0 mph 83% 0.00 in
02:36 74.5 °F 69.0 °F 30.05 in NNE 1.0 mph 2.0 mph 83% 0.00 in
02:41 74.7 °F 68.8 °F 30.05 in NE 2.0 mph 3.0 mph 82% 0.00 in
02:42 74.7 °F 68.8 °F 30.05 in NE 2.0 mph 2.0 mph 82% 0.00 in
02:47 74.8 °F 68.9 °F 30.05 in NE 1.0 mph 2.0 mph 82% 0.00 in
02:52 74.7 °F 68.8 °F 30.05 in Calm   2.0 mph 82% 0.00 in
02:56 74.6 °F 68.8 °F 30.05 in Calm   2.0 mph 82% 0.00 in
02:57 74.5 °F 68.7 °F 30.04 in NE 1.0 mph 2.0 mph 82% 0.00 in
03:02 74.5 °F 69.0 °F 30.04 in NE 2.0 mph 3.0 mph 83% 0.00 in
03:07 74.5 °F 69.0 °F 30.04 in NE 1.0 mph 2.0 mph 83% 0.00 in
03:12 74.4 °F 68.9 °F 30.04 in NE 2.0 mph 2.0 mph 83% 0.00 in
03:17 74.1 °F 69.0 °F 30.04 in NE 1.0 mph 3.0 mph 84% 0.00 in
03:22 73.9 °F 68.8 °F 30.03 in Calm   1.0 mph 84% 0.00 in
03:23 73.9 °F 68.8 °F 30.03 in NE 1.0 mph 1.0 mph 84% 0.00 in
03:28 73.7 °F 68.6 °F 30.04 in NE 1.0 mph 2.0 mph 84% 0.00 in
03:29 73.6 °F 68.5 °F 30.04 in NE 1.0 mph 2.0 mph 84% 0.00 in
03:33 73.4 °F 68.6 °F 30.04 in Calm   1.0 mph 85% 0.00 in
03:34 73.4 °F 68.6 °F 30.04 in NNE 1.0 mph 1.0 mph 85% 0.00 in
03:35 73.3 °F 68.5 °F 30.04 in North 1.0 mph 1.0 mph 85% 0.00 in
03:39 72.7 °F 67.9 °F 30.04 in NNW 2.0 mph 2.0 mph 85% 0.00 in
03:44 72.0 °F 68.3 °F 30.05 in NNW 2.0 mph 2.0 mph 88% 0.00 in
03:49 71.4 °F 68.0 °F 30.04 in Calm   1.0 mph 89% 0.00 in
03:54 71.0 °F 67.9 °F 30.04 in Calm     90% 0.00 in
03:59 71.1 °F 68.0 °F 30.04 in NE 1.0 mph 1.0 mph 90% 0.00 in
04:00 71.1 °F 68.0 °F 30.04 in NE 2.0 mph 2.0 mph 90% 0.00 in
04:05 71.9 °F 67.8 °F 30.03 in NE 1.0 mph 2.0 mph 87% 0.00 in
04:10 72.7 °F 68.3 °F 30.03 in NE 1.0 mph 2.0 mph 86% 0.00 in
04:11 72.8 °F 68.0 °F 30.03 in Calm   2.0 mph 85% 0.00 in
04:16 73.1 °F 68.0 °F 30.03 in NE 1.0 mph 2.0 mph 84% 0.00 in
04:21 73.2 °F 68.1 °F 30.03 in NE 1.0 mph 2.0 mph 84% 0.00 in
04:22 73.2 °F 68.1 °F 30.03 in NE 1.0 mph 1.0 mph 84% 0.00 in
04:27 73.0 °F 67.9 °F 30.04 in North 1.0 mph 2.0 mph 84% 0.00 in
04:32 72.0 °F 67.6 °F 30.04 in NNW 2.0 mph 2.0 mph 86% 0.00 in
04:33 71.9 °F 67.5 °F 30.04 in NNW 2.0 mph 2.0 mph 86% 0.00 in
04:37 70.8 °F 67.7 °F 30.04 in NNW 2.0 mph 2.0 mph 90% 0.00 in
04:39 70.5 °F 67.4 °F 30.04 in NNW 2.0 mph 3.0 mph 90% 0.00 in
04:44 70.0 °F 67.6 °F 30.04 in North 1.0 mph 2.0 mph 92% 0.00 in
04:49 70.0 °F 67.3 °F 30.04 in North 1.0 mph 1.0 mph 91% 0.00 in
04:54 70.5 °F 67.4 °F 30.04 in Calm   1.0 mph 90% 0.00 in
04:58 70.9 °F 67.5 °F 30.04 in Calm   1.0 mph 89% 0.00 in
05:03 71.0 °F 67.3 °F 30.04 in North 1.0 mph 1.0 mph 88% 0.00 in
05:04 71.0 °F 67.3 °F 30.04 in North 1.0 mph 1.0 mph 88% 0.00 in
05:09 71.0 °F 67.3 °F 30.04 in Calm   1.0 mph 88% 0.00 in
05:14 70.9 °F 67.5 °F 30.04 in North 1.0 mph 1.0 mph 89% 0.00 in
05:15 70.8 °F 67.4 °F 30.04 in North 1.0 mph 1.0 mph 89% 0.00 in
05:19 70.8 °F 67.4 °F 30.04 in NNW 2.0 mph 2.0 mph 89% 0.00 in
05:20 70.8 °F 67.4 °F 30.04 in NNW 2.0 mph 2.0 mph 89% 0.00 in
05:25 70.7 °F 67.3 °F 30.04 in Calm   2.0 mph 89% 0.00 in
05:29 70.6 °F 67.2 °F 30.04 in Calm   1.0 mph 89% 0.00 in
05:30 70.7 °F 67.3 °F 30.04 in Calm     89% 0.00 in
05:34 70.9 °F 67.5 °F 30.04 in Calm     89% 0.00 in
05:35 70.9 °F 67.5 °F 30.04 in Calm     89% 0.00 in
05:36 70.9 °F 67.2 °F 30.04 in Calm     88% 0.00 in
05:41 70.9 °F 67.2 °F 30.05 in Calm     88% 0.00 in
05:43 70.9 °F 67.2 °F 30.05 in Calm     88% 0.00 in
05:46 70.9 °F 67.2 °F 30.05 in Calm     88% 0.00 in
05:51 70.7 °F 67.0 °F 30.05 in Calm     88% 0.00 in
05:52 70.8 °F 67.4 °F 30.04 in Calm     89% 0.00 in
05:56 70.9 °F 67.2 °F 30.04 in NNE 1.0 mph 2.0 mph 88% 0.00 in
05:57 71.0 °F 67.3 °F 30.04 in NNE 1.0 mph 2.0 mph 88% 0.00 in
06:02 71.2 °F 67.5 °F 30.05 in NNE 1.0 mph 2.0 mph 88% 0.00 in
06:07 71.3 °F 67.6 °F 30.05 in NNE 1.0 mph 2.0 mph 88% 0.00 in
06:12 71.2 °F 67.5 °F 30.05 in Calm     88% 0.00 in
06:17 71.0 °F 67.3 °F 30.05 in Calm     88% 0.00 in
06:18 70.9 °F 67.2 °F 30.05 in Calm     88% 0.00 in
06:22 70.8 °F 67.4 °F 30.05 in Calm     89% 0.00 in
06:23 70.7 °F 67.3 °F 30.05 in Calm     89% 0.00 in
06:27 70.7 °F 67.3 °F 30.06 in Calm     89% 0.00 in
06:28 70.7 °F 67.3 °F 30.06 in Calm     89% 0.00 in
06:33 70.7 °F 67.3 °F 30.06 in NNW 2.0 mph 2.0 mph 89% 0.00 in
06:34 70.7 °F 67.3 °F 30.06 in NNW 2.0 mph 2.0 mph 89% 0.00 in
06:38 70.7 °F 67.3 °F 30.07 in NNW 1.0 mph 2.0 mph 89% 0.00 in
06:43 70.6 °F 67.2 °F 30.07 in North 1.0 mph 1.0 mph 89% 0.00 in
06:44 70.6 °F 67.2 °F 30.07 in North 1.0 mph 1.0 mph 89% 0.00 in
06:49 70.7 °F 67.3 °F 30.07 in North 1.0 mph 1.0 mph 89% 0.00 in
06:54 70.7 °F 67.3 °F 30.07 in NNW 1.0 mph 2.0 mph 89% 0.00 in
06:57 70.7 °F 67.3 °F 30.07 in NNW 2.0 mph 2.0 mph 89% 0.00 in
07:00 70.7 °F 67.3 °F 30.07 in Calm   2.0 mph 89% 0.00 in
07:02 70.8 °F 67.4 °F 30.07 in Calm   1.0 mph 89% 0.00 in
07:07 71.0 °F 67.6 °F 30.07 in North 1.0 mph 1.0 mph 89% 0.00 in
07:12 71.6 °F 68.2 °F 30.07 in Calm   2.0 mph 89% 0.00 in
07:17 72.0 °F 68.3 °F 30.07 in Calm   1.0 mph 88% 0.00 in
07:22 72.3 °F 68.6 °F 30.07 in Calm     88% 0.00 in
07:27 72.9 °F 68.5 °F 30.07 in Calm   2.0 mph 86% 0.00 in
07:28 72.9 °F 68.5 °F 30.07 in Calm   2.0 mph 86% 0.00 in
07:32 73.2 °F 68.8 °F 30.07 in North 1.0 mph 2.0 mph 86% 0.00 in
07:33 73.3 °F 68.9 °F 30.07 in North 1.0 mph 2.0 mph 86% 0.00 in
07:34 73.3 °F 68.9 °F 30.07 in North 1.0 mph 2.0 mph 86% 0.00 in
07:38 73.5 °F 69.1 °F 30.08 in North 2.0 mph 2.0 mph 86% 0.00 in
07:43 73.9 °F 69.1 °F 30.08 in NNE 1.0 mph 3.0 mph 85% 0.00 in
07:48 74.2 °F 69.4 °F 30.08 in NE 1.0 mph 2.0 mph 85% 0.00 in
07:49 74.2 °F 69.4 °F 30.08 in NE 3.0 mph 3.0 mph 85% 0.00 in
07:54 74.6 °F 69.4 °F 30.08 in NNE 2.0 mph 3.0 mph 84% 0.00 in
07:55 74.7 °F 69.6 °F 30.08 in NNE 1.0 mph 3.0 mph 84% 0.00 in
07:59 75.1 °F 69.9 °F 30.08 in NNE 3.0 mph 4.0 mph 84% 0.00 in
08:00 75.2 °F 69.7 °F 30.08 in NNE 2.0 mph 3.0 mph 83% 0.00 in
08:05 75.4 °F 69.9 °F 30.08 in NNE 2.0 mph 5.0 mph 83% 0.00 in
08:10 75.6 °F 70.1 °F 30.08 in NE 2.0 mph 5.0 mph 83% 0.00 in
08:15 75.7 °F 69.8 °F 30.08 in NNE 4.0 mph 5.0 mph 82% 0.00 in
08:20 76.1 °F 70.6 °F 30.08 in NE 1.0 mph 4.0 mph 83% 0.00 in
08:25 76.6 °F 70.7 °F 30.08 in NNE 3.0 mph 3.0 mph 82% 0.00 in
08:26 76.6 °F 70.7 °F 30.08 in NNE 2.0 mph 3.0 mph 82% 0.00 in
08:28 76.8 °F 70.5 °F 30.08 in NE 3.0 mph 3.0 mph 81% 0.00 in
08:31 77.2 °F 70.9 °F 30.08 in NNE 3.0 mph 4.0 mph 81% 0.00 in
08:33 77.3 °F 71.0 °F 30.08 in NNE 2.0 mph 3.0 mph 81% 0.00 in
08:34 77.3 °F 71.0 °F 30.08 in NE 2.0 mph 3.0 mph 81% 0.00 in
08:36 77.5 °F 70.8 °F 30.08 in NNE 4.0 mph 5.0 mph 80% 0.00 in
08:42 77.7 °F 71.0 °F 30.08 in NNE 2.0 mph 5.0 mph 80% 0.00 in
08:47 78.1 °F 71.4 °F 30.08 in NE 2.0 mph 4.0 mph 80% 0.00 in
08:52 78.5 °F 71.1 °F 30.08 in NNE 4.0 mph 7.0 mph 78% 0.00 in
08:55 78.6 °F 71.2 °F 30.09 in NE 3.0 mph 6.0 mph 78% 0.00 in
09:00 78.8 °F 71.7 °F 30.08 in NE 4.0 mph 7.0 mph 79% 0.00 in
09:06 79.1 °F 72.0 °F 30.09 in ENE 4.0 mph 5.0 mph 79% 0.00 in
09:11 79.4 °F 71.9 °F 30.09 in NE 3.0 mph 5.0 mph 78% 0.00 in
09:16 79.9 °F 72.1 °F 30.08 in NE 4.0 mph 5.0 mph 77% 0.00 in
09:21 80.0 °F 71.8 °F 30.09 in NNE 2.0 mph 5.0 mph 76% 0.00 in
09:26 80.7 °F 72.8 °F 30.09 in NE 2.0 mph 3.0 mph 77% 0.00 in
09:31 81.1 °F 72.4 °F 30.09 in NNE 3.0 mph 5.0 mph 75% 0.00 in
09:32 81.2 °F 72.5 °F 30.09 in ENE 4.0 mph 5.0 mph 75% 0.00 in
09:33 81.1 °F 71.6 °F 30.09 in NE 5.0 mph 6.0 mph 73% 0.00 in
09:37 81.1 °F 72.0 °F 30.09 in NE 4.0 mph 6.0 mph 74% 0.00 in
09:42 81.2 °F 72.1 °F 30.08 in North 3.0 mph 5.0 mph 74% 0.00 in
09:47 81.8 °F 73.1 °F 30.08 in NE 2.0 mph 4.0 mph 75% 0.00 in
09:52 82.3 °F 72.8 °F 30.09 in East 2.0 mph 4.0 mph 73% 0.00 in
09:53 82.4 °F 73.3 °F 30.09 in NNE 2.0 mph 4.0 mph 74% 0.00 in
09:56 82.8 °F 72.9 °F 30.09 in East 1.0 mph 3.0 mph 72% 0.00 in
09:57 83.0 °F 73.1 °F 30.09 in ENE 1.0 mph 3.0 mph 72% 0.00 in
10:01 83.0 °F 72.2 °F 30.09 in NE 2.0 mph 5.0 mph 70% 0.00 in
10:06 83.1 °F 73.1 °F 30.09 in NNE 4.0 mph 4.0 mph 72% 0.00 in
10:11 83.4 °F 73.0 °F 30.09 in NE 4.0 mph 5.0 mph 71% 0.00 in
10:16 83.5 °F 73.1 °F 30.08 in East 2.0 mph 4.0 mph 71% 0.00 in
10:22 83.7 °F 73.3 °F 30.08 in NE 1.0 mph 4.0 mph 71% 0.00 in
10:27 83.8 °F 73.0 °F 30.08 in NE 4.0 mph 5.0 mph 70% 0.00 in
10:29 83.9 °F 73.1 °F 30.08 in NE 5.0 mph 5.0 mph 70% 0.00 in
10:32 84.0 °F 72.7 °F 30.08 in NE 2.0 mph 5.0 mph 69% 0.00 in
10:35 84.0 °F 73.2 °F 30.08 in North 3.0 mph 5.0 mph 70% 0.00 in
10:40 84.4 °F 73.6 °F 30.07 in NE 5.0 mph 5.0 mph 70% 0.00 in
10:45 84.6 °F 73.3 °F 30.08 in NNW 1.0 mph 5.0 mph 69% 0.00 in
10:50 85.2 °F 74.3 °F 30.08 in North 2.0 mph 5.0 mph 70% 0.00 in
10:51 85.2 °F 73.4 °F 30.08 in NNW 2.0 mph 5.0 mph 68% 0.00 in
10:55 85.6 °F 75.1 °F 30.08 in NE 3.0 mph 5.0 mph 71% 0.00 in
10:56 85.6 °F 75.1 °F 30.08 in NE 2.0 mph 5.0 mph 71% 0.00 in
11:00 85.7 °F 72.6 °F 30.08 in ENE 2.0 mph 4.0 mph 65% 0.00 in
11:01 85.7 °F 72.6 °F 30.08 in East 1.0 mph 4.0 mph 65% 0.00 in
11:06 85.7 °F 72.6 °F 30.08 in ENE 2.0 mph 5.0 mph 65% 0.00 in
11:08 85.8 °F 72.7 °F 30.08 in NNE 1.0 mph 4.0 mph 65% 0.00 in
11:11 85.9 °F 72.8 °F 30.08 in NNE 5.0 mph 5.0 mph 65% 0.00 in
11:16 86.1 °F 72.5 °F 30.08 in NNE 3.0 mph 4.0 mph 64% 0.00 in
11:21 86.4 °F 72.8 °F 30.08 in NE 2.0 mph 4.0 mph 64% 0.00 in
11:26 86.6 °F 72.0 °F 30.08 in ENE 4.0 mph 6.0 mph 62% 0.00 in
11:28 86.6 °F 73.0 °F 30.08 in NNE 4.0 mph 5.0 mph 64% 0.00 in
11:31 86.6 °F 72.5 °F 30.08 in NE 4.0 mph 6.0 mph 63% 0.00 in
11:32 86.5 °F 72.9 °F 30.08 in NNE 2.0 mph 6.0 mph 64% 0.00 in
11:34 86.5 °F 73.3 °F 30.08 in NW 3.0 mph 4.0 mph 65% 0.00 in
11:36 86.5 °F 73.8 °F 30.08 in NNW 4.0 mph 4.0 mph 66% 0.00 in
11:39 86.6 °F 73.9 °F 30.08 in NE 2.0 mph 5.0 mph 66% 0.00 in
11:44 86.7 °F 72.6 °F 30.08 in NE 5.0 mph 5.0 mph 63% 0.00 in
11:49 87.0 °F 71.4 °F 30.08 in North 2.0 mph 4.0 mph 60% 0.00 in
11:54 87.5 °F 74.8 °F 30.08 in East 4.0 mph 5.0 mph 66% 0.00 in
11:55 87.5 °F 74.8 °F 30.08 in ENE 4.0 mph 5.0 mph 66% 0.00 in
11:57 87.6 °F 72.0 °F 30.08 in East 2.0 mph 4.0 mph 60% 0.00 in
11:59 87.6 °F 72.5 °F 30.08 in NE 5.0 mph 6.0 mph 61% 0.00 in
12:02 87.8 °F 72.2 °F 30.08 in NNE 1.0 mph 4.0 mph 60% 0.00 in
12:07 88.1 °F 73.9 °F 30.08 in WNW 1.0 mph 5.0 mph 63% 0.00 in
12:13 88.3 °F 73.6 °F 30.08 in East 3.0 mph 3.0 mph 62% 0.00 in
12:18 88.7 °F 73.0 °F 30.08 in NNE 3.0 mph 5.0 mph 60% 0.00 in
12:23 88.4 °F 71.8 °F 30.08 in SE 2.0 mph 6.0 mph 58% 0.00 in
12:28 88.1 °F 71.5 °F 30.08 in East 4.0 mph 4.0 mph 58% 0.00 in
12:29 88.0 °F 72.4 °F 30.08 in East 9.0 mph 12.0 mph 60% 0.00 in
12:30 88.0 °F 73.4 °F 30.08 in WNW 5.0 mph 12.0 mph 62% 0.00 in
12:33 87.8 °F 70.2 °F 30.08 in WNW 3.0 mph 6.0 mph 56% 0.00 in
12:37 87.3 °F 71.2 °F 30.08 in West 3.0 mph 5.0 mph 59% 0.00 in
12:38 87.4 °F 69.8 °F 30.08 in West 3.0 mph 5.0 mph 56% 0.00 in
12:43 87.4 °F 71.8 °F 30.08 in NNE 4.0 mph 5.0 mph 60% 0.00 in
12:44 87.4 °F 71.8 °F 30.08 in NNE 3.0 mph 5.0 mph 60% 0.00 in
12:49 87.7 °F 70.1 °F 30.07 in WNW 2.0 mph 4.0 mph 56% 0.00 in
12:54 88.0 °F 69.8 °F 30.07 in East 3.0 mph 7.0 mph 55% 0.00 in
12:59 88.4 °F 72.8 °F 30.07 in West 5.0 mph 5.0 mph 60% 0.00 in
13:04 88.5 °F 70.8 °F 30.07 in NW 4.0 mph 5.0 mph 56% 0.00 in
13:09 88.2 °F 73.1 °F 30.07 in NNW 5.0 mph 7.0 mph 61% 0.00 in
13:14 87.7 °F 72.1 °F 30.07 in NW 4.0 mph 5.0 mph 60% 0.00 in
13:19 88.1 °F 71.5 °F 30.06 in North 3.0 mph 6.0 mph 58% 0.00 in
13:24 88.5 °F 72.8 °F 30.06 in NW 3.0 mph 4.0 mph 60% 0.00 in
13:29 88.9 °F 72.2 °F 30.06 in ENE 5.0 mph 5.0 mph 58% 0.00 in
13:31 88.9 °F 70.7 °F 30.06 in East 2.0 mph 5.0 mph 55% 0.00 in
13:35 88.8 °F 71.6 °F 30.06 in East 4.0 mph 6.0 mph 57% 0.00 in
13:36 88.8 °F 70.0 °F 30.06 in East 4.0 mph 6.0 mph 54% 0.00 in
13:41 88.9 °F 70.7 °F 30.06 in North 1.0 mph 3.0 mph 55% 0.00 in
13:46 89.1 °F 70.3 °F 30.05 in SE 2.0 mph 3.0 mph 54% 0.00 in
13:47 89.2 °F 70.4 °F 30.05 in SE 1.0 mph 2.0 mph 54% 0.00 in
13:52 89.5 °F 70.7 °F 30.05 in ESE 1.0 mph 4.0 mph 54% 0.00 in
13:53 89.6 °F 71.8 °F 30.05 in Calm   4.0 mph 56% 0.00 in
13:57 89.9 °F 69.4 °F 30.04 in West 2.0 mph 3.0 mph 51% 0.00 in
13:58 89.9 °F 68.8 °F 30.04 in SSW 3.0 mph 3.0 mph 50% 0.00 in
14:03 90.2 °F 70.8 °F 30.04 in WNW 5.0 mph 8.0 mph 53% 0.00 in
14:08 89.9 °F 66.4 °F 30.04 in West 1.0 mph 5.0 mph 46% 0.00 in
14:13 90.1 °F 69.6 °F 30.04 in WNW 3.0 mph 5.0 mph 51% 0.00 in
14:18 89.9 °F 69.4 °F 30.04 in West 3.0 mph 6.0 mph 51% 0.00 in
14:23 89.8 °F 68.1 °F 30.03 in West 2.0 mph 4.0 mph 49% 0.00 in
14:28 90.0 °F 68.9 °F 30.03 in WNW 2.0 mph 4.0 mph 50% 0.00 in
14:29 90.0 °F 68.9 °F 30.03 in WNW 2.0 mph 4.0 mph 50% 0.00 in
14:34 90.4 °F 69.2 °F 30.03 in NW 1.0 mph 2.0 mph 50% 0.00 in
14:37 90.6 °F 67.6 °F 30.03 in North 2.0 mph 3.0 mph 47% 0.00 in
14:39 90.6 °F 67.0 °F 30.03 in NNE 2.0 mph 3.0 mph 46% 0.00 in
14:42 90.8 °F 67.2 °F 30.02 in NNW 3.0 mph 3.0 mph 46% 0.00 in
14:47 90.7 °F 68.9 °F 30.03 in WNW 3.0 mph 6.0 mph 49% 0.00 in
14:52 90.7 °F 69.5 °F 30.02 in NW 2.0 mph 3.0 mph 50% 0.00 in
14:54 90.8 °F 69.0 °F 30.02 in West 3.0 mph 7.0 mph 49% 0.00 in
14:58 90.7 °F 67.1 °F 30.02 in NW 4.0 mph 6.0 mph 46% 0.00 in
15:03 90.6 °F 69.4 °F 30.02 in WNW 4.0 mph 5.0 mph 50% 0.00 in
15:08 90.8 °F 67.2 °F 30.02 in NW 2.0 mph 5.0 mph 46% 0.00 in
15:13 90.8 °F 70.2 °F 30.02 in North 2.0 mph 4.0 mph 51% 0.00 in
15:18 90.9 °F 66.6 °F 30.02 in North 2.0 mph 4.0 mph 45% 0.00 in
15:23 91.0 °F 66.1 °F 30.02 in NNE 1.0 mph 3.0 mph 44% 0.00 in
15:28 91.5 °F 67.8 °F 30.02 in NNE 2.0 mph 2.0 mph 46% 0.00 in
15:33 91.7 °F 68.6 °F 30.01 in NNW 3.0 mph 5.0 mph 47% 0.00 in
15:38 91.6 °F 68.5 °F 30.01 in NW 1.0 mph 4.0 mph 47% 0.00 in
15:43 91.4 °F 69.0 °F 30.01 in NW 2.0 mph 4.0 mph 48% 0.00 in
15:48 91.7 °F 67.4 °F 30.01 in SW 2.0 mph 3.0 mph 45% 0.00 in
15:53 92.3 °F 71.6 °F 30.01 in North 1.0 mph 3.0 mph 51% 0.00 in
15:54 92.3 °F 71.6 °F 30.01 in NNW 1.0 mph 3.0 mph 51% 0.00 in
15:59 92.8 °F 68.4 °F 30.00 in Calm   2.0 mph 45% 0.00 in
16:04 93.2 °F 70.6 °F 30.00 in SSE 3.0 mph 4.0 mph 48% 0.00 in
16:09 92.8 °F 70.8 °F 30.00 in SE 5.0 mph 10.0 mph 49% 0.00 in
16:14 91.9 °F 69.4 °F 30.00 in ESE 2.0 mph 6.0 mph 48% 0.00 in
16:19 91.3 °F 70.1 °F 30.00 in ESE 5.0 mph 7.0 mph 50% 0.00 in
16:24 91.0 °F 68.6 °F 30.00 in SE 2.0 mph 6.0 mph 48% 0.00 in
16:29 91.4 °F 70.7 °F 30.00 in East 1.0 mph 4.0 mph 51% 0.00 in
16:33 91.6 °F 69.8 °F 30.00 in ENE 2.0 mph 4.0 mph 49% 0.00 in
16:34 91.6 °F 69.8 °F 30.00 in NNE 2.0 mph 4.0 mph 49% 0.00 in
16:35 91.6 °F 69.8 °F 29.99 in NNE 1.0 mph 4.0 mph 49% 0.00 in
16:36 91.6 °F 69.8 °F 29.99 in ENE 3.0 mph 4.0 mph 49% 0.00 in
16:39 91.3 °F 70.1 °F 29.99 in NW 1.0 mph 3.0 mph 50% 0.00 in
16:45 91.4 °F 70.7 °F 29.99 in NE 2.0 mph 5.0 mph 51% 0.00 in
16:50 91.0 °F 70.4 °F 29.99 in NE 5.0 mph 7.0 mph 51% 0.00 in
16:51 90.9 °F 70.8 °F 29.99 in NNE 4.0 mph 7.0 mph 52% 0.00 in
16:55 90.7 °F 71.8 °F 29.99 in NNW 3.0 mph 6.0 mph 54% 0.00 in
16:57 90.7 °F 71.2 °F 29.99 in NE 3.0 mph 5.0 mph 53% 0.00 in
17:00 90.9 °F 70.3 °F 29.99 in NE 5.0 mph 6.0 mph 51% 0.00 in
17:05 90.8 °F 70.2 °F 29.99 in ENE 2.0 mph 6.0 mph 51% 0.00 in
17:10 91.1 °F 73.8 °F 29.99 in North 2.0 mph 5.0 mph 57% 0.00 in
17:15 90.9 °F 69.1 °F 29.99 in ENE 2.0 mph 4.0 mph 49% 0.00 in
17:20 91.1 °F 69.9 °F 29.99 in NNE 3.0 mph 3.0 mph 50% 0.00 in
17:25 91.1 °F 69.3 °F 29.99 in Calm   3.0 mph 49% 0.00 in
17:30 92.1 °F 69.0 °F 29.98 in Calm   1.0 mph 47% 0.00 in
17:31 92.2 °F 69.1 °F 29.98 in SE 1.0 mph 1.0 mph 47% 0.00 in
17:32 92.4 °F 69.9 °F 29.98 in Calm   1.0 mph 48% 0.00 in
17:36 93.2 °F 70.6 °F 29.98 in Calm     48% 0.00 in
17:41 93.2 °F 70.0 °F 29.98 in NNE 5.0 mph 5.0 mph 47% 0.00 in
17:46 92.2 °F 70.3 °F 29.99 in WNW 1.0 mph 3.0 mph 49% 0.00 in
17:51 92.4 °F 73.9 °F 29.98 in ENE 4.0 mph 4.0 mph 55% 0.00 in
17:56 91.9 °F 71.2 °F 29.98 in NE 3.0 mph 4.0 mph 51% 0.00 in
17:57 91.9 °F 71.8 °F 29.98 in North 5.0 mph 5.0 mph 52% 0.00 in
17:58 91.7 °F 71.6 °F 29.98 in NW 4.0 mph 5.0 mph 52% 0.00 in
18:03 91.4 °F 74.0 °F 29.98 in NNW 2.0 mph 4.0 mph 57% 0.00 in
18:04 91.4 °F 73.0 °F 29.98 in NNW 2.0 mph 4.0 mph 55% 0.00 in
18:09 91.5 °F 73.1 °F 29.98 in NNE 3.0 mph 4.0 mph 55% 0.00 in
18:14 91.2 °F 70.6 °F 29.98 in NE 4.0 mph 4.0 mph 51% 0.00 in
18:19 90.9 °F 73.0 °F 29.98 in NNE 2.0 mph 3.0 mph 56% 0.00 in
18:24 90.7 °F 70.7 °F 29.97 in NE 4.0 mph 6.0 mph 52% 0.00 in
18:29 90.5 °F 71.6 °F 29.97 in North 4.0 mph 4.0 mph 54% 0.00 in
18:34 90.2 °F 72.4 °F 29.97 in NNW 5.0 mph 5.0 mph 56% 0.00 in
18:35 90.2 °F 72.4 °F 29.97 in NW 3.0 mph 5.0 mph 56% 0.00 in
18:36 90.0 °F 71.1 °F 29.97 in NW 3.0 mph 5.0 mph 54% 0.00 in
18:40 90.1 °F 71.8 °F 29.97 in NW 2.0 mph 3.0 mph 55% 0.00 in
18:41 90.3 °F 70.9 °F 29.97 in WNW 1.0 mph 3.0 mph 53% 0.00 in
18:46 90.6 °F 71.7 °F 29.97 in WNW 1.0 mph 4.0 mph 54% 0.00 in
18:47 90.6 °F 71.7 °F 29.97 in WNW 3.0 mph 4.0 mph 54% 0.00 in
18:52 90.7 °F 73.4 °F 29.97 in NW 2.0 mph 3.0 mph 57% 0.00 in
18:54 90.8 °F 71.3 °F 29.97 in Calm   2.0 mph 53% 0.00 in
18:57 90.9 °F 70.8 °F 29.97 in West 3.0 mph 4.0 mph 52% 0.00 in
19:00 90.7 °F 70.7 °F 29.97 in WNW 3.0 mph 4.0 mph 52% 0.00 in
19:02 90.5 °F 70.5 °F 29.97 in WNW 2.0 mph 3.0 mph 52% 0.00 in
19:07 89.9 °F 70.5 °F 29.97 in West 2.0 mph 2.0 mph 53% 0.00 in
19:08 89.9 °F 70.5 °F 29.97 in West 2.0 mph 2.0 mph 53% 0.00 in
19:13 89.8 °F 70.4 °F 29.97 in Calm   2.0 mph 53% 0.00 in
19:18 89.8 °F 70.9 °F 29.97 in WNW 1.0 mph 2.0 mph 54% 0.00 in
19:23 90.0 °F 70.6 °F 29.97 in WNW 1.0 mph 1.0 mph 53% 0.00 in
19:28 90.0 °F 71.7 °F 29.97 in WNW 1.0 mph 2.0 mph 55% 0.00 in
19:29 90.0 °F 72.2 °F 29.97 in WNW 1.0 mph 1.0 mph 56% 0.00 in
19:33 89.9 °F 73.2 °F 29.97 in NNW 2.0 mph 2.0 mph 58% 0.00 in
19:34 89.7 °F 73.0 °F 29.97 in NW 1.0 mph 2.0 mph 58% 0.00 in
19:37 89.6 °F 73.4 °F 29.97 in Calm   2.0 mph 59% 0.00 in
19:40 89.7 °F 73.5 °F 29.97 in Calm   1.0 mph 59% 0.00 in
19:42 89.9 °F 73.2 °F 29.97 in Calm     58% 0.00 in
19:46 90.0 °F 73.2 °F 29.97 in Calm   1.0 mph 58% 0.00 in
19:47 89.9 °F 72.6 °F 29.97 in NW 1.0 mph 1.0 mph 57% 0.00 in
19:52 89.4 °F 73.7 °F 29.97 in NNW 1.0 mph 1.0 mph 60% 0.00 in
19:53 89.3 °F 73.6 °F 29.97 in NNW 1.0 mph 1.0 mph 60% 0.00 in
19:57 88.7 °F 74.0 °F 29.97 in NNW 1.0 mph 1.0 mph 62% 0.00 in
19:59 88.4 °F 73.7 °F 29.97 in Calm   1.0 mph 62% 0.00 in
20:04 87.8 °F 72.2 °F 29.97 in North 1.0 mph 1.0 mph 60% 0.00 in
20:09 87.4 °F 71.8 °F 29.97 in North 1.0 mph 1.0 mph 60% 0.00 in
20:14 87.0 °F 71.9 °F 29.98 in Calm   1.0 mph 61% 0.00 in
20:19 86.7 °F 71.7 °F 29.98 in Calm   1.0 mph 61% 0.00 in
20:24 86.6 °F 72.0 °F 29.98 in Calm     62% 0.00 in
20:29 86.3 °F 72.2 °F 29.98 in NNE 1.0 mph 1.0 mph 63% 0.00 in
20:30 86.3 °F 72.2 °F 29.98 in NNE 1.0 mph 1.0 mph 63% 0.00 in
20:34 86.1 °F 72.0 °F 29.98 in NE 1.0 mph 2.0 mph 63% 0.00 in
20:35 86.1 °F 72.0 °F 29.98 in NE 2.0 mph 3.0 mph 63% 0.00 in
20:36 86.0 °F 72.4 °F 29.98 in NE 2.0 mph 3.0 mph 64% 0.00 in
20:37 85.9 °F 72.3 °F 29.98 in NE 2.0 mph 3.0 mph 64% 0.00 in
20:42 85.7 °F 71.7 °F 29.98 in NE 2.0 mph 3.0 mph 63% 0.00 in
20:47 85.5 °F 72.4 °F 29.98 in NE 2.0 mph 3.0 mph 65% 0.00 in
20:52 85.0 °F 72.4 °F 29.98 in NE 2.0 mph 2.0 mph 66% 0.00 in
20:53 84.9 °F 72.3 °F 29.98 in NNE 1.0 mph 2.0 mph 66% 0.00 in
20:57 84.3 °F 72.6 °F 29.98 in Calm   1.0 mph 68% 0.00 in
21:02 83.1 °F 73.6 °F 29.98 in NNW 1.0 mph 2.0 mph 73% 0.00 in
21:07 82.0 °F 73.7 °F 29.98 in NNW 1.0 mph 1.0 mph 76% 0.00 in
21:12 81.1 °F 73.2 °F 29.98 in NNW 1.0 mph 1.0 mph 77% 0.00 in
21:17 81.1 °F 73.2 °F 29.98 in NNE 1.0 mph 1.0 mph 77% 0.00 in
21:18 81.1 °F 73.2 °F 29.98 in NNE 1.0 mph 1.0 mph 77% 0.00 in
21:23 81.1 °F 73.2 °F 29.98 in Calm   1.0 mph 77% 0.00 in
21:28 80.7 °F 72.8 °F 29.98 in NE 3.0 mph 3.0 mph 77% 0.00 in
21:33 80.8 °F 72.5 °F 29.98 in NNE 1.0 mph 3.0 mph 76% 0.00 in
21:34 80.8 °F 72.9 °F 29.98 in NNE 1.0 mph 2.0 mph 77% 0.00 in
21:35 80.8 °F 72.9 °F 29.98 in Calm   2.0 mph 77% 0.00 in
21:39 80.6 °F 72.7 °F 29.98 in NNE 1.0 mph 1.0 mph 77% 0.00 in
21:44 80.1 °F 72.2 °F 29.98 in NNE 1.0 mph 1.0 mph 77% 0.00 in
21:49 80.2 °F 71.9 °F 29.98 in NE 1.0 mph 2.0 mph 76% 0.00 in
21:54 80.5 °F 71.8 °F 29.98 in NE 2.0 mph 2.0 mph 75% 0.00 in
21:59 80.5 °F 71.8 °F 29.98 in NE 1.0 mph 2.0 mph 75% 0.00 in
22:04 80.3 °F 71.7 °F 29.98 in NE 2.0 mph 2.0 mph 75% 0.00 in
22:09 80.3 °F 71.7 °F 29.99 in NE 1.0 mph 2.0 mph 75% 0.00 in
22:14 80.3 °F 71.7 °F 29.99 in NE 2.0 mph 3.0 mph 75% 0.00 in
22:19 80.3 °F 72.1 °F 29.99 in NE 2.0 mph 2.0 mph 76% 0.00 in
22:24 80.2 °F 71.9 °F 29.99 in NNE 1.0 mph 2.0 mph 76% 0.00 in
22:29 79.9 °F 71.7 °F 29.99 in NNE 1.0 mph 2.0 mph 76% 0.00 in
22:31 79.9 °F 71.7 °F 29.99 in NNE 1.0 mph 2.0 mph 76% 0.00 in
22:35 79.8 °F 71.9 °F 29.99 in NNE 2.0 mph 2.0 mph 77% 0.00 in
22:38 79.7 °F 71.9 °F 29.99 in NNE 2.0 mph 3.0 mph 77% 0.00 in
22:40 79.6 °F 71.8 °F 29.99 in NNE 2.0 mph 3.0 mph 77% 0.00 in
22:43 79.6 °F 71.8 °F 29.99 in Calm   2.0 mph 77% 0.00 in
22:48 79.0 °F 71.6 °F 30.00 in NNE 1.0 mph 1.0 mph 78% 0.00 in
22:53 78.6 °F 71.6 °F 30.00 in Calm   2.0 mph 79% 0.00 in
22:54 78.6 °F 71.6 °F 30.00 in NNE 1.0 mph 1.0 mph 79% 0.00 in
22:58 78.6 °F 71.6 °F 30.00 in NNE 1.0 mph 1.0 mph 79% 0.00 in
22:59 78.6 °F 71.6 °F 30.00 in Calm   1.0 mph 79% 0.00 in
23:04 78.4 °F 71.3 °F 30.00 in Calm   1.0 mph 79% 0.00 in
23:09 77.8 °F 71.1 °F 29.99 in Calm     80% 0.00 in
23:14 77.4 °F 71.1 °F 30.00 in Calm   1.0 mph 81% 0.00 in
23:19 76.6 °F 71.1 °F 30.00 in NNE 1.0 mph 1.0 mph 83% 0.00 in
23:24 75.8 °F 71.0 °F 30.00 in Calm     85% 0.00 in
23:29 75.5 °F 71.0 °F 30.00 in Calm     86% 0.00 in
23:30 75.5 °F 71.0 °F 29.99 in Calm     86% 0.00 in
23:31 75.5 °F 71.0 °F 30.00 in Calm     86% 0.00 in
23:35 75.9 °F 71.1 °F 29.99 in Calm     85% 0.00 in
23:36 75.9 °F 71.1 °F 29.99 in Calm     85% 0.00 in
23:37 76.0 °F 70.8 °F 30.00 in Calm     84% 0.00 in
23:42 75.9 °F 70.7 °F 29.99 in Calm     84% 0.00 in
23:47 75.3 °F 70.8 °F 29.99 in Calm     86% 0.00 in
23:52 74.7 °F 70.6 °F 29.99 in Calm     87% 0.00 in
23:53 74.6 °F 70.8 °F 29.99 in Calm     88% 0.00 in
23:57 74.4 °F 70.9 °F 29.99 in Calm     89% 0.00 in
23:58 74.3 °F 70.8 °F 29.99 in Calm     89% 0.00 in
23:59 74.2 °F 70.8 °F 29.99 in Calm     89% 0.00 in
Compliments of Weather Underground